Time,TemperatureF,DewpointF,PressureIn,WindDirection,WindDirectionDegrees,WindSpeedMPH,WindSpeedGustMPH,Humidity,HourlyPrecipIn,Conditions,Clouds,dailyrainin,SolarRadiationWatts/m^2,SoftwareType,DateUTC
2013-11-02 09:12:00,53.1,48.0,30.00,ENE,68,6.5,0.0,83,0.00,OVC,,0.00,0.0,WeatherDisplay:10.37,2013-11-02 08:12:00,
2013-11-02 09:17:00,52.7,50.1,30.00,SSW,202,2.3,2.3,91,0.00,OVC,,0.00,0.0,WeatherDisplay:10.37,2013-11-02 08:17:00,
2013-11-02 09:22:00,52.9,50.0,30.00,SSW,202,5.8,5.8,90,0.00,OVC,,0.00,0.0,WeatherDisplay:10.37,2013-11-02 08:22:00,
2013-11-02 09:27:00,53.1,50.2,30.00,SSE,158,4.6,4.6,90,0.00,OVC,,0.00,0.0,WeatherDisplay:10.37,2013-11-02 08:27:00,
2013-11-02 09:32:00,53.2,50.4,30.00,SSW,202,4.6,4.6,90,0.00,OVC,,0.00,0.0,WeatherDisplay:10.37,2013-11-02 08:32:00,
2013-11-02 09:37:00,53.4,50.3,30.00,SSW,202,3.8,3.8,89,0.00,OVC,,0.00,0.0,WeatherDisplay:10.37,2013-11-02 08:37:00,
2013-11-02 09:42:00,53.6,50.1,30.00,ESE,112,4.3,4.3,88,0.00,OVC,,0.00,0.0,WeatherDisplay:10.37,2013-11-02 08:42:00,
2013-11-02 09:47:00,54.0,50.5,30.00,South,180,2.3,2.3,88,0.00,OVC,,0.00,0.0,WeatherDisplay:10.37,2013-11-02 08:47:00,
2013-11-02 09:52:00,54.1,50.7,30.00,ESE,112,4.5,4.5,88,0.00,OVC,,0.00,0.0,WeatherDisplay:10.37,2013-11-02 08:52:00,
2013-11-02 09:57:00,54.3,50.5,30.00,WSW,248,4.0,4.0,87,0.00,OVC,,0.00,0.0,WeatherDisplay:10.37,2013-11-02 08:57:00,
2013-11-02 10:02:00,54.5,50.7,30.00,SSE,158,2.6,2.9,87,0.00,OVC,,0.00,0.0,WeatherDisplay:10.37,2013-11-02 09:02:00,
2013-11-02 10:07:00,54.7,50.9,30.00,SSW,202,3.8,3.8,87,0.00,OVC,,0.00,0.0,WeatherDisplay:10.37,2013-11-02 09:07:00,
2013-11-02 10:12:00,55.2,51.4,30.00,WSW,248,4.6,4.7,87,0.00,OVC,,0.00,0.0,WeatherDisplay:10.37,2013-11-02 09:12:00,
2013-11-02 10:17:00,55.6,51.5,30.00,SSE,158,4.9,4.9,86,0.00,OVC,,0.00,0.0,WeatherDisplay:10.37,2013-11-02 09:17:00,
2013-11-02 10:22:00,55.9,51.5,30.00,NNW,338,5.8,5.8,85,0.00,OVC,,0.00,0.0,WeatherDisplay:10.37,2013-11-02 09:22:00,
2013-11-02 10:27:00,56.1,51.7,30.00,ESE,112,3.5,3.5,85,0.00,OVC,,0.00,0.0,WeatherDisplay:10.37,2013-11-02 09:27:00,
2013-11-02 10:32:00,56.3,51.8,30.00,NNW,338,5.8,5.8,85,0.00,OVC,,0.00,0.0,WeatherDisplay:10.37,2013-11-02 09:32:00,
2013-11-02 10:37:00,56.7,51.9,30.00,SSW,202,3.5,3.8,84,0.00,OVC,,0.00,0.0,WeatherDisplay:10.37,2013-11-02 09:37:00,
2013-11-02 10:42:00,56.8,52.1,30.00,SW,225,6.0,6.0,84,0.00,OVC,,0.00,0.0,WeatherDisplay:10.37,2013-11-02 09:42:00,
2013-11-02 10:47:00,57.2,52.1,29.97,SSW,202,5.8,5.8,83,0.00,OVC,,0.00,0.0,WeatherDisplay:10.37,2013-11-02 09:47:00,
2013-11-02 10:52:00,57.6,52.1,29.97,WSW,248,3.5,3.5,82,0.00,OVC,,0.00,0.0,WeatherDisplay:10.37,2013-11-02 09:52:00,
2013-11-02 10:57:00,57.7,52.3,29.97,ENE,68,4.6,4.6,82,0.00,OVC,,0.00,0.0,WeatherDisplay:10.37,2013-11-02 09:57:00,
2013-11-02 11:02:00,57.9,52.5,29.97,South,180,3.5,3.5,82,0.00,OVC,,0.00,0.0,WeatherDisplay:10.37,2013-11-02 10:02:00,
2013-11-02 11:07:00,58.1,52.6,29.97,SSW,202,4.6,4.6,82,0.00,OVC,,0.00,0.0,WeatherDisplay:10.37,2013-11-02 10:07:00,
2013-11-02 11:12:00,58.3,52.5,29.97,SSW,202,6.9,6.9,81,0.00,OVC,,0.00,0.0,WeatherDisplay:10.37,2013-11-02 10:12:00,
2013-11-02 11:17:00,58.5,52.6,29.94,WSW,248,5.8,5.8,81,0.00,OVC,,0.00,0.0,WeatherDisplay:10.37,2013-11-02 10:17:00,
2013-11-02 11:22:00,58.6,52.5,29.94,WNW,292,2.3,2.3,80,0.00,OVC,,0.00,0.0,WeatherDisplay:10.37,2013-11-02 10:22:00,
2013-11-02 11:27:00,58.8,53.0,29.94,West,270,6.9,6.9,81,0.00,OVC,,0.00,0.0,WeatherDisplay:10.37,2013-11-02 10:27:00,
2013-11-02 11:32:00,58.8,52.7,29.94,SSW,202,4.6,4.6,80,0.00,OVC,,0.00,0.0,WeatherDisplay:10.37,2013-11-02 10:32:00,
2013-11-02 11:37:00,59.0,52.5,29.94,SSW,202,4.6,4.6,79,0.00,OVC,,0.00,0.0,WeatherDisplay:10.37,2013-11-02 10:37:00,
2013-11-02 11:42:00,59.0,52.5,29.94,ESE,112,6.9,6.9,79,0.00,OVC,,0.00,0.0,WeatherDisplay:10.37,2013-11-02 10:42:00,
2013-11-02 11:47:00,59.2,52.7,29.94,SSW,202,4.6,4.6,79,0.00,OVC,,0.00,0.0,WeatherDisplay:10.37,2013-11-02 10:47:00,
2013-11-02 11:52:00,59.4,52.8,29.94,WSW,248,5.8,5.8,79,0.00,OVC,,0.00,0.0,WeatherDisplay:10.37,2013-11-02 10:52:00,
2013-11-02 11:57:00,59.5,53.0,29.94,WSW,248,6.9,6.9,79,0.00,OVC,,0.00,0.0,WeatherDisplay:10.37,2013-11-02 10:57:00,
2013-11-02 12:02:00,59.7,52.8,29.94,SSE,158,3.5,3.5,78,0.00,OVC,,0.00,0.0,WeatherDisplay:10.37,2013-11-02 11:02:00,
2013-11-02 12:07:00,60.1,52.8,29.94,WSW,248,8.1,8.1,77,0.00,OVC,,0.00,0.0,WeatherDisplay:10.37,2013-11-02 11:07:00,
2013-11-02 12:12:00,60.4,52.8,29.94,SSE,158,5.8,5.8,76,0.00,OVC,,0.00,0.0,WeatherDisplay:10.37,2013-11-02 11:12:00,
2013-11-02 12:17:00,60.6,52.3,29.94,WSW,248,10.0,10.0,74,0.00,OVC,,0.00,0.0,WeatherDisplay:10.37,2013-11-02 11:17:00,
2013-11-02 12:22:00,61.0,52.3,29.94,SSE,158,5.8,5.8,73,0.00,OVC,,0.00,0.0,WeatherDisplay:10.37,2013-11-02 11:22:00,
2013-11-02 12:27:00,61.2,52.4,29.94,WSW,248,9.2,9.2,73,0.00,OVC,,0.00,0.0,WeatherDisplay:10.37,2013-11-02 11:27:00,
2013-11-02 12:32:00,61.0,51.1,29.91,WSW,248,8.1,8.1,70,0.00,OVC,,0.00,0.0,WeatherDisplay:10.37,2013-11-02 11:32:00,
2013-11-02 12:37:00,61.0,51.9,29.91,East,90,8.1,8.1,72,0.00,OVC,,0.00,0.0,WeatherDisplay:10.37,2013-11-02 11:37:00,
2013-11-02 12:42:00,61.0,52.3,29.91,SSW,202,4.6,4.6,73,0.00,OVC,,0.00,0.0,WeatherDisplay:10.37,2013-11-02 11:42:00,
2013-11-02 12:47:00,61.0,52.3,29.91,SSW,202,3.5,3.5,73,0.00,OVC,,0.00,0.0,WeatherDisplay:10.37,2013-11-02 11:47:00,
2013-11-02 12:52:00,61.0,52.3,29.91,SSW,202,4.6,4.6,73,0.00,OVC,,0.00,0.0,WeatherDisplay:10.37,2013-11-02 11:52:00,
2013-11-02 12:57:00,61.2,52.1,29.91,WSW,248,5.8,5.8,72,0.00,OVC,,0.00,0.0,WeatherDisplay:10.37,2013-11-02 11:57:00,
2013-11-02 13:02:00,61.2,52.1,29.88,SE,135,4.6,4.6,72,0.00,OVC,,0.00,0.0,WeatherDisplay:10.37,2013-11-02 12:02:00,
2013-11-02 13:07:00,61.3,52.6,29.88,WSW,248,4.6,4.6,73,0.00,OVC,,0.00,0.0,WeatherDisplay:10.37,2013-11-02 12:07:00,
2013-11-02 13:12:00,61.3,52.6,29.88,SSW,202,5.8,5.8,73,0.00,OVC,,0.00,0.0,WeatherDisplay:10.37,2013-11-02 12:12:00,
2013-11-02 13:17:00,61.5,52.8,29.91,SSE,158,5.8,5.8,73,0.00,OVC,,0.00,0.0,WeatherDisplay:10.37,2013-11-02 12:17:00,
2013-11-02 13:22:00,61.5,52.8,29.91,WSW,248,6.9,6.9,73,0.00,OVC,,0.00,0.0,WeatherDisplay:10.37,2013-11-02 12:22:00,
2013-11-02 13:27:00,61.5,52.0,29.91,WSW,248,9.2,9.2,71,0.00,OVC,,0.00,0.0,WeatherDisplay:10.37,2013-11-02 12:27:00,
2013-11-02 13:32:00,61.3,52.2,29.88,SSW,202,3.8,3.8,72,0.00,OVC,,0.00,0.0,WeatherDisplay:10.37,2013-11-02 12:32:00,
2013-11-02 13:37:00,61.3,51.5,29.88,SW,225,5.8,5.8,70,0.00,OVC,,0.00,0.0,WeatherDisplay:10.37,2013-11-02 12:37:00,
2013-11-02 13:42:00,61.2,51.3,29.88,SW,225,4.6,4.7,70,0.00,OVC,,0.00,0.0,WeatherDisplay:10.37,2013-11-02 12:42:00,
2013-11-02 13:47:00,61.2,51.7,29.85,SSW,202,4.6,4.6,71,0.00,OVC,,0.00,0.0,WeatherDisplay:10.37,2013-11-02 12:47:00,
2013-11-02 13:52:00,61.2,51.3,29.85,SSW,202,8.1,8.1,70,0.00,OVC,,0.00,0.0,WeatherDisplay:10.37,2013-11-02 12:52:00,
2013-11-02 13:57:00,61.3,52.2,29.85,SW,225,3.5,3.5,72,0.00,OVC,,0.00,0.0,WeatherDisplay:10.37,2013-11-02 12:57:00,
2013-11-02 14:02:00,61.2,51.7,29.88,SSW,202,5.8,5.8,71,0.00,OVC,,0.00,0.0,WeatherDisplay:10.37,2013-11-02 13:02:00,
2013-11-02 14:07:00,61.2,51.7,29.88,SSW,202,8.1,8.1,71,0.00,OVC,,0.00,0.0,WeatherDisplay:10.37,2013-11-02 13:07:00,
2013-11-02 14:12:00,61.2,51.7,29.88,SW,225,5.6,5.6,71,0.00,OVC,,0.00,0.0,WeatherDisplay:10.37,2013-11-02 13:12:00,
2013-11-02 14:17:00,61.3,51.5,29.88,SSW,202,5.8,5.8,70,0.00,OVC,,0.00,0.0,WeatherDisplay:10.37,2013-11-02 13:17:00,
2013-11-02 14:22:00,61.2,51.3,29.88,WSW,248,10.4,10.4,70,0.00,OVC,,0.00,0.0,WeatherDisplay:10.37,2013-11-02 13:22:00,
2013-11-02 14:27:00,61.2,51.3,29.88,SSW,202,6.2,6.2,70,0.00,OVC,,0.00,0.0,WeatherDisplay:10.37,2013-11-02 13:27:00,
2013-11-02 14:32:00,61.0,51.1,29.88,SW,225,6.9,6.9,70,0.00,OVC,,0.00,0.0,WeatherDisplay:10.37,2013-11-02 13:32:00,
2013-11-02 14:37:00,61.0,51.1,29.88,SSW,202,6.4,6.4,70,0.00,OVC,,0.00,0.0,WeatherDisplay:10.37,2013-11-02 13:37:00,
2013-11-02 14:42:00,61.0,51.5,29.88,WSW,248,6.9,6.9,71,0.00,OVC,,0.00,0.0,WeatherDisplay:10.37,2013-11-02 13:42:00,
2013-11-02 14:47:00,61.0,51.9,29.88,SSW,202,4.0,4.0,72,0.00,OVC,,0.00,0.0,WeatherDisplay:10.37,2013-11-02 13:47:00,
2013-11-02 14:52:00,60.8,51.7,29.88,WSW,248,2.6,2.6,72,0.00,OVC,,0.00,0.0,WeatherDisplay:10.37,2013-11-02 13:52:00,
2013-11-02 14:57:00,60.8,51.7,29.88,SSW,202,4.6,4.6,72,0.00,OVC,,0.00,0.0,WeatherDisplay:10.37,2013-11-02 13:57:00,
2013-11-02 15:02:00,60.8,51.7,29.88,SSW,202,3.5,3.5,72,0.00,OVC,,0.00,0.0,WeatherDisplay:10.37,2013-11-02 14:02:00,
2013-11-02 15:07:00,60.6,51.5,29.88,WSW,248,6.2,6.2,72,0.00,OVC,,0.00,0.0,WeatherDisplay:10.37,2013-11-02 14:07:00,
2013-11-02 15:12:00,60.8,51.3,29.88,WSW,248,10.4,10.4,71,0.00,OVC,,0.00,0.0,WeatherDisplay:10.37,2013-11-02 14:12:00,
2013-11-02 15:17:00,61.0,51.5,29.88,SW,225,6.9,6.9,71,0.00,OVC,,0.00,0.0,WeatherDisplay:10.37,2013-11-02 14:17:00,
2013-11-02 15:22:00,61.2,51.3,29.88,WNW,292,11.5,11.5,70,0.00,OVC,,0.00,0.0,WeatherDisplay:10.37,2013-11-02 14:22:00,
2013-11-02 15:27:00,61.3,51.5,29.88,West,270,8.1,8.1,70,0.00,OVC,,0.00,0.0,WeatherDisplay:10.37,2013-11-02 14:27:00,
2013-11-02 15:32:00,61.2,51.7,29.88,WNW,292,8.1,8.1,71,0.00,OVC,,0.00,0.0,WeatherDisplay:10.37,2013-11-02 14:32:00,
2013-11-02 15:37:00,60.8,52.1,29.88,SSW,202,5.8,5.8,73,0.00,OVC,,0.00,0.0,WeatherDisplay:10.37,2013-11-02 14:37:00,
2013-11-02 15:42:00,60.3,52.7,29.88,SSE,158,8.1,8.1,76,0.00,OVC,,0.00,0.0,WeatherDisplay:10.37,2013-11-02 14:42:00,
2013-11-02 15:47:00,59.9,53.0,29.88,WSW,248,5.8,5.8,78,0.00,OVC,,0.00,0.0,WeatherDisplay:10.37,2013-11-02 14:47:00,
2013-11-02 15:52:00,59.5,53.4,29.88,SSW,202,4.6,4.6,80,0.00,RA,,0.00,0.0,WeatherDisplay:10.37,2013-11-02 14:52:00,
2013-11-02 15:57:00,59.2,53.4,29.88,SW,225,5.4,5.4,81,0.00,RA,,0.00,0.0,WeatherDisplay:10.37,2013-11-02 14:57:00,
2013-11-02 16:02:00,59.0,53.5,29.88,SSW,202,6.9,6.9,82,0.01,RA,,0.01,0.0,WeatherDisplay:10.37,2013-11-02 15:02:00,
2013-11-02 16:07:00,58.8,54.0,29.88,South,180,5.9,5.9,84,0.01,RA,,0.01,0.0,WeatherDisplay:10.37,2013-11-02 15:07:00,
2013-11-02 16:12:00,58.6,53.8,29.88,SSW,202,5.8,5.8,84,0.01,OVC,,0.01,0.0,WeatherDisplay:10.37,2013-11-02 15:12:00,
2013-11-02 16:17:00,58.5,53.6,29.88,WSW,248,6.0,6.0,84,0.01,OVC,,0.01,0.0,WeatherDisplay:10.37,2013-11-02 15:17:00,
2013-11-02 16:22:00,58.5,53.6,29.88,SSW,202,5.8,5.8,84,0.01,OVC,,0.01,0.0,WeatherDisplay:10.37,2013-11-02 15:22:00,
2013-11-02 16:27:00,58.5,54.0,29.88,SSE,158,5.8,5.8,85,0.01,OVC,,0.01,0.0,WeatherDisplay:10.37,2013-11-02 15:27:00,
2013-11-02 16:32:00,58.5,54.3,29.88,SSW,202,8.1,8.1,86,0.01,OVC,,0.01,0.0,WeatherDisplay:10.37,2013-11-02 15:32:00,
2013-11-02 16:37:00,58.5,54.3,29.88,SSW,202,6.9,6.9,86,0.01,OVC,,0.01,0.0,WeatherDisplay:10.37,2013-11-02 15:37:00,
2013-11-02 16:42:00,58.5,54.3,29.88,SSE,158,8.1,8.1,86,0.01,OVC,,0.01,0.0,WeatherDisplay:10.37,2013-11-02 15:42:00,
2013-11-02 16:47:00,58.5,54.3,29.88,SSW,202,8.5,8.5,86,0.01,OVC,,0.01,0.0,WeatherDisplay:10.37,2013-11-02 15:47:00,
2013-11-02 16:52:00,58.5,54.3,29.88,SW,225,5.8,5.8,86,0.00,OVC,,0.01,0.0,WeatherDisplay:10.37,2013-11-02 15:52:00,
2013-11-02 16:57:00,58.5,54.3,29.88,WSW,248,8.1,8.1,86,0.00,CLR,,0.01,0.0,WeatherDisplay:10.37,2013-11-02 15:57:00,
2013-11-02 17:02:00,58.5,54.6,29.91,WSW,248,4.6,4.6,87,0.00,CLR,,0.01,0.0,WeatherDisplay:10.37,2013-11-02 16:02:00,
2013-11-02 17:07:00,58.5,54.6,29.91,WSW,248,6.9,6.9,87,0.00,CLR,,0.01,0.0,WeatherDisplay:10.37,2013-11-02 16:07:00,
2013-11-02 17:12:00,58.5,54.6,29.91,WSW,248,7.1,7.1,87,0.00,CLR,,0.01,0.0,WeatherDisplay:10.37,2013-11-02 16:12:00,
2013-11-02 17:17:00,58.5,54.9,29.91,SW,225,5.8,5.8,88,0.00,CLR,,0.01,0.0,WeatherDisplay:10.37,2013-11-02 16:17:00,
2013-11-02 17:22:00,58.3,54.7,29.91,WSW,248,10.4,10.4,88,0.00,CLR,,0.01,0.0,WeatherDisplay:10.37,2013-11-02 16:22:00,
2013-11-02 17:27:00,58.3,54.7,29.91,WSW,248,5.9,5.9,88,0.00,CLR,,0.01,0.0,WeatherDisplay:10.37,2013-11-02 16:27:00,
2013-11-02 17:32:00,58.3,54.7,29.91,WSW,248,5.8,5.8,88,0.00,CLR,,0.01,0.0,WeatherDisplay:10.37,2013-11-02 16:32:00,
2013-11-02 17:37:00,58.1,54.9,29.91,SSW,202,8.1,8.1,89,0.00,CLR,,0.01,0.0,WeatherDisplay:10.37,2013-11-02 16:37:00,
2013-11-02 17:42:00,58.1,54.6,29.91,SSW,202,4.6,4.6,88,0.00,CLR,,0.01,0.0,WeatherDisplay:10.37,2013-11-02 16:42:00,
2013-11-02 17:47:00,57.9,54.7,29.91,SSW,202,5.8,5.8,89,0.00,CLR,,0.01,0.0,WeatherDisplay:10.37,2013-11-02 16:47:00,
2013-11-02 17:52:00,57.9,54.4,29.91,WSW,248,6.9,6.9,88,0.00,CLR,,0.01,0.0,WeatherDisplay:10.37,2013-11-02 16:52:00,
2013-11-02 17:57:00,57.9,54.7,29.91,WSW,248,4.7,4.7,89,0.00,CLR,,0.01,0.0,WeatherDisplay:10.37,2013-11-02 16:57:00,
2013-11-02 18:02:00,57.7,54.2,29.91,WSW,248,3.5,3.5,88,0.00,CLR,,0.01,0.0,WeatherDisplay:10.37,2013-11-02 17:02:00,
2013-11-02 18:07:00,57.7,54.2,29.91,SSW,202,3.5,3.5,88,0.00,CLR,,0.01,0.0,WeatherDisplay:10.37,2013-11-02 17:07:00,
2013-11-02 18:12:00,57.6,54.0,29.91,WNW,292,4.6,4.6,88,0.00,CLR,,0.01,0.0,WeatherDisplay:10.37,2013-11-02 17:12:00,
2013-11-02 18:17:00,57.6,54.0,29.91,SSE,158,2.3,2.3,88,0.00,CLR,,0.01,0.0,WeatherDisplay:10.37,2013-11-02 17:17:00,
2013-11-02 18:22:00,57.4,53.9,29.91,WSW,248,5.8,5.8,88,0.00,CLR,,0.01,0.0,WeatherDisplay:10.37,2013-11-02 17:22:00,
2013-11-02 18:27:00,57.4,53.9,29.91,WNW,292,2.3,0.0,88,0.00,CLR,,0.01,0.0,WeatherDisplay:10.37,2013-11-02 17:27:00,
2013-11-02 18:32:00,57.4,53.9,29.91,SSE,158,1.1,0.0,88,0.00,CLR,,0.01,0.0,WeatherDisplay:10.37,2013-11-02 17:32:00,
2013-11-02 18:37:00,57.4,53.9,29.91,SW,225,0.9,0.0,88,0.00,CLR,,0.01,0.0,WeatherDisplay:10.37,2013-11-02 17:37:00,
2013-11-02 18:42:00,57.2,53.7,29.91,ESE,112,2.3,2.3,88,0.00,CLR,,0.01,0.0,WeatherDisplay:10.37,2013-11-02 17:42:00,
2013-11-02 18:47:00,57.2,53.7,29.91,NNE,22,1.1,1.1,88,0.00,CLR,,0.01,0.0,WeatherDisplay:10.37,2013-11-02 17:47:00,
2013-11-02 18:52:00,57.2,53.7,29.91,SSE,158,2.4,0.0,88,0.00,CLR,,0.01,0.0,WeatherDisplay:10.37,2013-11-02 17:52:00,
2013-11-02 18:57:00,57.2,53.7,29.91,SSW,202,1.4,1.4,88,0.00,CLR,,0.01,0.0,WeatherDisplay:10.37,2013-11-02 17:57:00,
2013-11-02 19:02:00,57.0,53.8,29.88,SSW,202,0.0,0.0,89,0.00,CLR,,0.01,0.0,WeatherDisplay:10.37,2013-11-02 18:02:00,
2013-11-02 19:07:00,57.0,53.8,29.88,SW,225,3.5,3.5,89,0.00,CLR,,0.01,0.0,WeatherDisplay:10.37,2013-11-02 18:07:00,
2013-11-02 19:12:00,56.8,53.9,29.88,SSW,202,3.5,3.5,90,0.00,CLR,,0.01,0.0,WeatherDisplay:10.37,2013-11-02 18:12:00,
2013-11-02 19:17:00,56.7,54.1,29.91,WSW,248,4.6,4.6,91,0.00,CLR,,0.01,0.0,WeatherDisplay:10.37,2013-11-02 18:17:00,
2013-11-02 19:22:00,56.7,54.1,29.91,SSW,202,4.6,4.6,91,0.00,CLR,,0.01,0.0,WeatherDisplay:10.37,2013-11-02 18:22:00,
2013-11-02 19:27:00,56.7,54.1,29.91,SSW,202,3.5,3.5,91,0.00,CLR,,0.01,0.0,WeatherDisplay:10.37,2013-11-02 18:27:00,
2013-11-02 19:32:00,56.7,54.1,29.88,SSW,202,1.1,3.6,91,0.00,CLR,,0.01,0.0,WeatherDisplay:10.37,2013-11-02 18:32:00,
2013-11-02 19:37:00,56.5,53.9,29.88,SE,135,3.5,3.5,91,0.00,CLR,,0.01,0.0,WeatherDisplay:10.37,2013-11-02 18:37:00,
2013-11-02 19:42:00,56.3,53.7,29.88,SSW,202,1.6,0.0,91,0.00,CLR,,0.01,0.0,WeatherDisplay:10.37,2013-11-02 18:42:00,
2013-11-02 19:47:00,56.3,53.7,29.88,SW,225,4.6,4.6,91,0.00,CLR,,0.01,0.0,WeatherDisplay:10.37,2013-11-02 18:47:00,
2013-11-02 19:52:00,56.1,53.5,29.88,WSW,248,5.8,5.8,91,0.00,CLR,,0.01,0.0,WeatherDisplay:10.37,2013-11-02 18:52:00,
2013-11-02 19:57:00,56.1,53.8,29.88,SSW,202,5.8,5.8,92,0.00,CLR,,0.01,0.0,WeatherDisplay:10.37,2013-11-02 18:57:00,
2013-11-02 20:02:00,56.1,54.1,29.88,SW,225,6.0,6.0,93,0.00,CLR,,0.01,0.0,WeatherDisplay:10.37,2013-11-02 19:02:00,
2013-11-02 20:07:00,56.3,54.3,29.88,WSW,248,5.8,5.8,93,0.00,CLR,,0.01,0.0,WeatherDisplay:10.37,2013-11-02 19:07:00,
2013-11-02 20:12:00,56.3,54.6,29.88,WSW,248,6.4,6.4,94,0.00,CLR,,0.01,0.0,WeatherDisplay:10.37,2013-11-02 19:12:00,
2013-11-02 20:17:00,56.5,54.8,29.91,SW,225,5.8,5.8,94,0.00,CLR,,0.01,0.0,WeatherDisplay:10.37,2013-11-02 19:17:00,
2013-11-02 20:22:00,56.3,54.6,29.91,ESE,112,5.8,5.8,94,0.00,CLR,,0.01,0.0,WeatherDisplay:10.37,2013-11-02 19:22:00,
2013-11-02 20:27:00,56.3,54.6,29.91,SSW,202,4.6,4.6,94,0.00,CLR,,0.01,0.0,WeatherDisplay:10.37,2013-11-02 19:27:00,
2013-11-02 20:32:00,56.1,54.4,29.91,SSW,202,3.5,3.5,94,0.00,CLR,,0.01,0.0,WeatherDisplay:10.37,2013-11-02 19:32:00,
2013-11-02 20:37:00,55.9,54.2,29.91,WSW,248,3.6,3.6,94,0.00,CLR,,0.01,0.0,WeatherDisplay:10.37,2013-11-02 19:37:00,
2013-11-02 20:42:00,55.8,54.1,29.91,SSW,202,3.8,3.8,94,0.00,CLR,,0.01,0.0,WeatherDisplay:10.37,2013-11-02 19:42:00,
2013-11-02 20:47:00,55.6,53.9,29.91,SSW,202,3.5,3.5,94,0.00,CLR,,0.01,0.0,WeatherDisplay:10.37,2013-11-02 19:47:00,
2013-11-02 20:52:00,55.4,53.7,29.91,SSW,202,2.3,2.3,94,0.00,CLR,,0.01,0.0,WeatherDisplay:10.37,2013-11-02 19:52:00,
2013-11-02 20:57:00,55.2,53.2,29.91,South,180,1.1,0.0,93,0.00,CLR,,0.01,0.0,WeatherDisplay:10.37,2013-11-02 19:57:00,
2013-11-02 21:02:00,54.9,52.9,29.91,South,180,0.0,0.0,93,0.00,CLR,,0.01,0.0,WeatherDisplay:10.37,2013-11-02 20:02:00,
2013-11-02 21:07:00,54.7,52.4,29.91,SSE,158,1.1,0.0,92,0.00,CLR,,0.01,0.0,WeatherDisplay:10.37,2013-11-02 20:07:00,
2013-11-02 21:12:00,54.3,52.0,29.91,SSE,158,0.0,0.0,92,0.00,CLR,,0.01,0.0,WeatherDisplay:10.37,2013-11-02 20:12:00,
2013-11-02 21:17:00,54.0,51.7,29.91,ENE,68,0.0,0.0,92,0.00,CLR,,0.01,0.0,WeatherDisplay:10.37,2013-11-02 20:17:00,
2013-11-02 21:22:00,53.6,51.3,29.91,ENE,68,0.0,0.0,92,0.00,CLR,,0.01,0.0,WeatherDisplay:10.37,2013-11-02 20:22:00,
2013-11-02 21:27:00,53.2,51.3,29.91,SSW,202,0.0,0.0,93,0.00,CLR,,0.01,0.0,WeatherDisplay:10.37,2013-11-02 20:27:00,
2013-11-02 21:32:00,53.1,51.1,29.91,SSW,202,1.1,1.1,93,0.00,CLR,,0.01,0.0,WeatherDisplay:10.37,2013-11-02 20:32:00,
2013-11-02 21:37:00,52.9,50.9,29.91,SSW,202,2.6,2.6,93,0.00,CLR,,0.01,0.0,WeatherDisplay:10.37,2013-11-02 20:37:00,
2013-11-02 21:42:00,52.7,50.7,29.91,SW,225,1.1,1.1,93,0.00,CLR,,0.01,0.0,WeatherDisplay:10.37,2013-11-02 20:42:00,
2013-11-02 21:47:00,52.7,51.0,29.91,SSW,202,2.3,0.0,94,0.00,CLR,,0.01,0.0,WeatherDisplay:10.37,2013-11-02 20:47:00,
2013-11-02 21:52:00,52.5,50.8,29.91,SSW,202,0.0,0.0,94,0.00,CLR,,0.01,0.0,WeatherDisplay:10.37,2013-11-02 20:52:00,
2013-11-02 21:57:00,52.7,51.0,29.91,SSW,202,0.0,0.0,94,0.00,CLR,,0.01,0.0,WeatherDisplay:10.37,2013-11-02 20:57:00,
2013-11-02 22:02:00,52.7,51.0,29.91,ESE,112,0.0,0.0,94,0.00,CLR,,0.01,0.0,WeatherDisplay:10.37,2013-11-02 21:02:00,
2013-11-02 22:07:00,52.7,51.3,29.88,SE,135,0.0,0.0,95,0.00,CLR,,0.01,0.0,WeatherDisplay:10.37,2013-11-02 21:07:00,